sensor_id;sensor_type;location;lat;lon;timestamp;P1;durP1;ratioP1;P2;durP2;ratioP2
43216;SDS011;71549;42.686;23.300;2023-08-24T00:00:46;5.00;;;4.60;;
43216;SDS011;71549;42.686;23.300;2023-08-24T00:02:46;5.50;;;5.00;;
43216;SDS011;71549;42.686;23.300;2023-08-24T00:04:49;5.30;;;4.90;;
43216;SDS011;71549;42.686;23.300;2023-08-24T00:06:49;5.90;;;5.40;;
43216;SDS011;71549;42.686;23.300;2023-08-24T00:08:49;4.93;;;4.50;;
43216;SDS011;71549;42.686;23.300;2023-08-24T00:10:50;5.57;;;5.18;;
43216;SDS011;71549;42.686;23.300;2023-08-24T00:12:52;5.15;;;4.75;;
43216;SDS011;71549;42.686;23.300;2023-08-24T00:14:53;5.60;;;5.10;;
43216;SDS011;71549;42.686;23.300;2023-08-24T00:16:53;5.05;;;4.75;;
43216;SDS011;71549;42.686;23.300;2023-08-24T00:18:54;5.63;;;5.13;;
43216;SDS011;71549;42.686;23.300;2023-08-24T00:20:54;5.32;;;4.93;;
43216;SDS011;71549;42.686;23.300;2023-08-24T00:22:55;5.15;;;4.75;;
43216;SDS011;71549;42.686;23.300;2023-08-24T00:24:57;6.03;;;4.65;;
43216;SDS011;71549;42.686;23.300;2023-08-24T00:26:58;4.90;;;4.50;;
43216;SDS011;71549;42.686;23.300;2023-08-24T00:28:58;4.93;;;4.53;;
43216;SDS011;71549;42.686;23.300;2023-08-24T00:30:58;5.30;;;4.90;;
43216;SDS011;71549;42.686;23.300;2023-08-24T00:32:59;5.13;;;4.75;;
43216;SDS011;71549;42.686;23.300;2023-08-24T00:35:00;5.53;;;5.03;;
43216;SDS011;71549;42.686;23.300;2023-08-24T00:37:09;4.90;;;4.47;;
43216;SDS011;71549;42.686;23.300;2023-08-24T00:39:09;5.75;;;5.25;;
43216;SDS011;71549;42.686;23.300;2023-08-24T00:41:10;5.85;;;5.35;;
43216;SDS011;71549;42.686;23.300;2023-08-24T00:43:12;5.43;;;5.03;;
43216;SDS011;71549;42.686;23.300;2023-08-24T00:45:13;5.30;;;4.90;;
43216;SDS011;71549;42.686;23.300;2023-08-24T00:47:15;5.35;;;4.95;;
43216;SDS011;71549;42.686;23.300;2023-08-24T00:49:17;5.43;;;4.97;;
43216;SDS011;71549;42.686;23.300;2023-08-24T00:51:17;4.90;;;4.50;;
43216;SDS011;71549;42.686;23.300;2023-08-24T00:53:19;5.30;;;4.82;;
43216;SDS011;71549;42.686;23.300;2023-08-24T00:55:21;5.13;;;4.72;;
43216;SDS011;71549;42.686;23.300;2023-08-24T00:57:21;5.60;;;5.13;;
43216;SDS011;71549;42.686;23.300;2023-08-24T00:59:22;5.95;;;5.53;;
43216;SDS011;71549;42.686;23.300;2023-08-24T01:01:24;5.00;;;4.60;;
43216;SDS011;71549;42.686;23.300;2023-08-24T01:03:24;5.60;;;5.20;;
43216;SDS011;71549;42.686;23.300;2023-08-24T01:05:25;5.32;;;4.85;;
43216;SDS011;71549;42.686;23.300;2023-08-24T01:07:25;4.85;;;4.55;;
43216;SDS011;71549;42.686;23.300;2023-08-24T01:09:27;5.55;;;5.05;;
43216;SDS011;71549;42.686;23.300;2023-08-24T01:16:37;5.50;;;5.05;;
43216;SDS011;71549;42.686;23.300;2023-08-24T01:18:41;5.35;;;4.85;;
43216;SDS011;71549;42.686;23.300;2023-08-24T01:20:43;5.47;;;5.00;;
43216;SDS011;71549;42.686;23.300;2023-08-24T01:24:53;5.32;;;4.93;;
43216;SDS011;71549;42.686;23.300;2023-08-24T01:27:05;5.47;;;5.07;;
43216;SDS011;71549;42.686;23.300;2023-08-24T01:29:06;5.32;;;4.93;;
43216;SDS011;71549;42.686;23.300;2023-08-24T01:31:07;5.53;;;5.03;;
43216;SDS011;71549;42.686;23.300;2023-08-24T01:33:09;5.22;;;4.72;;
43216;SDS011;71549;42.686;23.300;2023-08-24T01:35:12;5.82;;;5.32;;
43216;SDS011;71549;42.686;23.300;2023-08-24T01:37:12;5.55;;;5.15;;
43216;SDS011;71549;42.686;23.300;2023-08-24T01:41:35;5.35;;;4.85;;
43216;SDS011;71549;42.686;23.300;2023-08-24T01:43:43;5.85;;;5.35;;
43216;SDS011;71549;42.686;23.300;2023-08-24T01:45:48;6.15;;;5.65;;
43216;SDS011;71549;42.686;23.300;2023-08-24T01:49:52;6.47;;;5.85;;
43216;SDS011;71549;42.686;23.300;2023-08-24T01:51:56;5.97;;;5.50;;
43216;SDS011;71549;42.686;23.300;2023-08-24T01:53:57;5.53;;;5.13;;
43216;SDS011;71549;42.686;23.300;2023-08-24T01:56:02;4.82;;;4.45;;
43216;SDS011;71549;42.686;23.300;2023-08-24T01:58:08;5.80;;;5.30;;
43216;SDS011;71549;42.686;23.300;2023-08-24T02:00:09;4.70;;;4.40;;
43216;SDS011;71549;42.686;23.300;2023-08-24T02:02:10;5.78;;;5.38;;
43216;SDS011;71549;42.686;23.300;2023-08-24T02:04:10;5.82;;;5.32;;
43216;SDS011;71549;42.686;23.300;2023-08-24T02:06:11;5.22;;;4.82;;
43216;SDS011;71549;42.686;23.300;2023-08-24T02:08:12;5.75;;;5.35;;
43216;SDS011;71549;42.686;23.300;2023-08-24T02:10:13;5.30;;;4.90;;
43216;SDS011;71549;42.686;23.300;2023-08-24T02:12:14;5.47;;;5.07;;
43216;SDS011;71549;42.686;23.300;2023-08-24T02:14:15;6.22;;;5.72;;
43216;SDS011;71549;42.686;23.300;2023-08-24T02:16:15;5.95;;;5.55;;
43216;SDS011;71549;42.686;23.300;2023-08-24T02:18:16;6.03;;;5.55;;
43216;SDS011;71549;42.686;23.300;2023-08-24T02:20:16;5.90;;;5.40;;
43216;SDS011;71549;42.686;23.300;2023-08-24T02:22:17;5.30;;;4.90;;
43216;SDS011;71549;42.686;23.300;2023-08-24T02:24:18;5.97;;;5.45;;
43216;SDS011;71549;42.686;23.300;2023-08-24T02:26:18;5.63;;;5.13;;
43216;SDS011;71549;42.686;23.300;2023-08-24T02:28:20;5.82;;;5.43;;
43216;SDS011;71549;42.686;23.300;2023-08-24T02:30:21;6.15;;;5.60;;
43216;SDS011;71549;42.686;23.300;2023-08-24T02:32:22;5.80;;;5.30;;
43216;SDS011;71549;42.686;23.300;2023-08-24T02:34:22;5.97;;;5.47;;
43216;SDS011;71549;42.686;23.300;2023-08-24T02:36:23;6.18;;;5.68;;
43216;SDS011;71549;42.686;23.300;2023-08-24T02:38:24;5.97;;;5.47;;
43216;SDS011;71549;42.686;23.300;2023-08-24T02:40:25;5.95;;;5.35;;
43216;SDS011;71549;42.686;23.300;2023-08-24T02:42:26;6.90;;;6.03;;
43216;SDS011;71549;42.686;23.300;2023-08-24T02:44:27;5.38;;;4.97;;
43216;SDS011;71549;42.686;23.300;2023-08-24T02:46:27;6.07;;;5.68;;
43216;SDS011;71549;42.686;23.300;2023-08-24T02:48:29;6.10;;;5.60;;
43216;SDS011;71549;42.686;23.300;2023-08-24T02:50:30;5.28;;;4.90;;
43216;SDS011;71549;42.686;23.300;2023-08-24T02:52:31;5.55;;;5.15;;
43216;SDS011;71549;42.686;23.300;2023-08-24T02:54:33;5.13;;;4.72;;
43216;SDS011;71549;42.686;23.300;2023-08-24T02:56:36;5.45;;;4.97;;
43216;SDS011;71549;42.686;23.300;2023-08-24T02:58:36;6.50;;;5.90;;
43216;SDS011;71549;42.686;23.300;2023-08-24T03:00:40;5.95;;;5.38;;
43216;SDS011;71549;42.686;23.300;2023-08-24T03:02:40;6.32;;;5.82;;
43216;SDS011;71549;42.686;23.300;2023-08-24T03:04:40;5.55;;;5.15;;
43216;SDS011;71549;42.686;23.300;2023-08-24T03:06:43;6.20;;;5.65;;
43216;SDS011;71549;42.686;23.300;2023-08-24T03:08:44;6.50;;;5.90;;
43216;SDS011;71549;42.686;23.300;2023-08-24T03:10:44;5.88;;;5.30;;
43216;SDS011;71549;42.686;23.300;2023-08-24T03:12:46;6.43;;;5.82;;
43216;SDS011;71549;42.686;23.300;2023-08-24T03:14:50;6.60;;;6.10;;
43216;SDS011;71549;42.686;23.300;2023-08-24T03:16:52;6.70;;;6.20;;
43216;SDS011;71549;42.686;23.300;2023-08-24T03:18:52;6.03;;;5.53;;
43216;SDS011;71549;42.686;23.300;2023-08-24T03:20:53;6.68;;;6.18;;
43216;SDS011;71549;42.686;23.300;2023-08-24T03:22:53;6.40;;;5.90;;
43216;SDS011;71549;42.686;23.300;2023-08-24T03:24:53;6.10;;;5.60;;
43216;SDS011;71549;42.686;23.300;2023-08-24T03:26:54;6.65;;;6.10;;
43216;SDS011;71549;42.686;23.300;2023-08-24T03:28:54;6.53;;;5.93;;
43216;SDS011;71549;42.686;23.300;2023-08-24T03:30:55;7.78;;;6.57;;
43216;SDS011;71549;42.686;23.300;2023-08-24T03:32:55;6.97;;;6.45;;
43216;SDS011;71549;42.686;23.300;2023-08-24T03:34:59;7.40;;;6.70;;
43216;SDS011;71549;42.686;23.300;2023-08-24T03:37:00;7.20;;;6.60;;
43216;SDS011;71549;42.686;23.300;2023-08-24T03:39:00;7.15;;;6.35;;
43216;SDS011;71549;42.686;23.300;2023-08-24T03:41:02;6.75;;;6.25;;
43216;SDS011;71549;42.686;23.300;2023-08-24T03:43:07;6.72;;;6.15;;
43216;SDS011;71549;42.686;23.300;2023-08-24T03:45:08;6.82;;;6.32;;
43216;SDS011;71549;42.686;23.300;2023-08-24T03:47:09;7.28;;;6.68;;
43216;SDS011;71549;42.686;23.300;2023-08-24T03:49:09;7.00;;;6.40;;
43216;SDS011;71549;42.686;23.300;2023-08-24T03:51:10;6.00;;;5.50;;
43216;SDS011;71549;42.686;23.300;2023-08-24T03:53:10;6.57;;;6.00;;
43216;SDS011;71549;42.686;23.300;2023-08-24T03:55:11;6.55;;;5.95;;
43216;SDS011;71549;42.686;23.300;2023-08-24T03:57:11;6.25;;;5.75;;
43216;SDS011;71549;42.686;23.300;2023-08-24T03:59:12;6.47;;;5.88;;
43216;SDS011;71549;42.686;23.300;2023-08-24T04:01:12;6.75;;;6.15;;
43216;SDS011;71549;42.686;23.300;2023-08-24T04:03:14;6.90;;;6.32;;
43216;SDS011;71549;42.686;23.300;2023-08-24T04:05:14;6.93;;;6.32;;
43216;SDS011;71549;42.686;23.300;2023-08-24T04:07:15;6.95;;;6.35;;
43216;SDS011;71549;42.686;23.300;2023-08-24T04:09:16;6.85;;;6.25;;
43216;SDS011;71549;42.686;23.300;2023-08-24T04:11:17;6.72;;;6.22;;
43216;SDS011;71549;42.686;23.300;2023-08-24T04:13:18;6.82;;;6.22;;
43216;SDS011;71549;42.686;23.300;2023-08-24T04:15:18;6.40;;;5.90;;
43216;SDS011;71549;42.686;23.300;2023-08-24T04:17:19;6.47;;;5.97;;
43216;SDS011;71549;42.686;23.300;2023-08-24T04:19:19;6.57;;;6.07;;
43216;SDS011;71549;42.686;23.300;2023-08-24T04:21:20;6.97;;;6.38;;
43216;SDS011;71549;42.686;23.300;2023-08-24T04:23:24;6.68;;;5.88;;
43216;SDS011;71549;42.686;23.300;2023-08-24T04:25:29;6.65;;;6.15;;
43216;SDS011;71549;42.686;23.300;2023-08-24T04:27:30;6.05;;;5.63;;
43216;SDS011;71549;42.686;23.300;2023-08-24T04:29:31;7.18;;;6.45;;
43216;SDS011;71549;42.686;23.300;2023-08-24T04:31:35;6.32;;;5.93;;
43216;SDS011;71549;42.686;23.300;2023-08-24T04:33:37;6.78;;;6.25;;
43216;SDS011;71549;42.686;23.300;2023-08-24T04:35:38;6.90;;;6.30;;
43216;SDS011;71549;42.686;23.300;2023-08-24T04:37:38;6.45;;;5.95;;
43216;SDS011;71549;42.686;23.300;2023-08-24T04:39:40;6.38;;;5.88;;
43216;SDS011;71549;42.686;23.300;2023-08-24T04:41:40;7.00;;;6.40;;
43216;SDS011;71549;42.686;23.300;2023-08-24T04:43:41;6.60;;;6.00;;
43216;SDS011;71549;42.686;23.300;2023-08-24T04:45:41;6.47;;;5.93;;
43216;SDS011;71549;42.686;23.300;2023-08-24T04:47:42;7.15;;;6.45;;
43216;SDS011;71549;42.686;23.300;2023-08-24T04:49:42;6.50;;;5.95;;
43216;SDS011;71549;42.686;23.300;2023-08-24T04:51:42;7.40;;;6.80;;
43216;SDS011;71549;42.686;23.300;2023-08-24T04:53:43;7.65;;;7.05;;
43216;SDS011;71549;42.686;23.300;2023-08-24T04:55:44;7.32;;;6.63;;
43216;SDS011;71549;42.686;23.300;2023-08-24T04:57:45;7.10;;;6.50;;
43216;SDS011;71549;42.686;23.300;2023-08-24T04:59:46;6.45;;;5.95;;
43216;SDS011;71549;42.686;23.300;2023-08-24T05:01:46;7.03;;;6.50;;
43216;SDS011;71549;42.686;23.300;2023-08-24T05:03:47;6.97;;;6.47;;
43216;SDS011;71549;42.686;23.300;2023-08-24T05:05:47;6.38;;;5.88;;
43216;SDS011;71549;42.686;23.300;2023-08-24T05:07:48;7.13;;;6.53;;
43216;SDS011;71549;42.686;23.300;2023-08-24T05:09:48;7.68;;;6.95;;
43216;SDS011;71549;42.686;23.300;2023-08-24T05:11:49;6.80;;;6.30;;
43216;SDS011;71549;42.686;23.300;2023-08-24T05:13:50;7.60;;;6.90;;
43216;SDS011;71549;42.686;23.300;2023-08-24T05:15:50;7.00;;;6.50;;
43216;SDS011;71549;42.686;23.300;2023-08-24T05:17:51;7.28;;;6.68;;
43216;SDS011;71549;42.686;23.300;2023-08-24T05:19:56;7.22;;;6.63;;
43216;SDS011;71549;42.686;23.300;2023-08-24T05:21:56;7.13;;;6.53;;
43216;SDS011;71549;42.686;23.300;2023-08-24T05:23:56;7.53;;;6.93;;
43216;SDS011;71549;42.686;23.300;2023-08-24T05:25:57;7.28;;;6.68;;
43216;SDS011;71549;42.686;23.300;2023-08-24T05:28:00;8.35;;;7.50;;
43216;SDS011;71549;42.686;23.300;2023-08-24T05:30:01;7.10;;;6.50;;
43216;SDS011;71549;42.686;23.300;2023-08-24T05:32:01;7.35;;;6.78;;
43216;SDS011;71549;42.686;23.300;2023-08-24T05:34:03;6.75;;;6.15;;
43216;SDS011;71549;42.686;23.300;2023-08-24T05:36:03;9.25;;;6.97;;
43216;SDS011;71549;42.686;23.300;2023-08-24T05:38:04;6.90;;;6.40;;
43216;SDS011;71549;42.686;23.300;2023-08-24T05:40:05;7.78;;;7.10;;
43216;SDS011;71549;42.686;23.300;2023-08-24T05:42:05;15.00;;;12.40;;
43216;SDS011;71549;42.686;23.300;2023-08-24T05:44:06;20.83;;;15.13;;
43216;SDS011;71549;42.686;23.300;2023-08-24T05:46:07;16.77;;;15.18;;
43216;SDS011;71549;42.686;23.300;2023-08-24T05:48:07;16.63;;;15.18;;
43216;SDS011;71549;42.686;23.300;2023-08-24T05:50:07;19.15;;;16.50;;
43216;SDS011;71549;42.686;23.300;2023-08-24T05:52:08;18.60;;;15.60;;
43216;SDS011;71549;42.686;23.300;2023-08-24T05:54:08;20.27;;;16.45;;
43216;SDS011;71549;42.686;23.300;2023-08-24T05:56:09;18.15;;;16.40;;
43216;SDS011;71549;42.686;23.300;2023-08-24T05:58:09;19.95;;;16.77;;
43216;SDS011;71549;42.686;23.300;2023-08-24T06:00:10;19.27;;;17.33;;
43216;SDS011;71549;42.686;23.300;2023-08-24T06:02:11;20.33;;;16.70;;
43216;SDS011;71549;42.686;23.300;2023-08-24T06:04:11;18.10;;;16.25;;
43216;SDS011;71549;42.686;23.300;2023-08-24T06:06:12;20.15;;;16.65;;
43216;SDS011;71549;42.686;23.300;2023-08-24T06:08:12;20.85;;;17.70;;
43216;SDS011;71549;42.686;23.300;2023-08-24T06:10:13;18.15;;;16.30;;
43216;SDS011;71549;42.686;23.300;2023-08-24T06:12:13;19.48;;;17.52;;
43216;SDS011;71549;42.686;23.300;2023-08-24T06:14:14;19.52;;;17.48;;
43216;SDS011;71549;42.686;23.300;2023-08-24T06:16:15;21.63;;;16.90;;
43216;SDS011;71549;42.686;23.300;2023-08-24T06:18:15;17.10;;;14.77;;
43216;SDS011;71549;42.686;23.300;2023-08-24T06:20:16;19.88;;;14.57;;
43216;SDS011;71549;42.686;23.300;2023-08-24T06:22:16;19.50;;;16.23;;
43216;SDS011;71549;42.686;23.300;2023-08-24T06:24:17;18.63;;;16.83;;
43216;SDS011;71549;42.686;23.300;2023-08-24T06:26:17;16.35;;;14.70;;
43216;SDS011;71549;42.686;23.300;2023-08-24T06:28:18;18.15;;;15.50;;
43216;SDS011;71549;42.686;23.300;2023-08-24T06:30:18;18.00;;;16.10;;
43216;SDS011;71549;42.686;23.300;2023-08-24T06:32:19;18.30;;;16.52;;
43216;SDS011;71549;42.686;23.300;2023-08-24T06:34:19;18.20;;;16.13;;
43216;SDS011;71549;42.686;23.300;2023-08-24T06:36:21;18.27;;;16.40;;
43216;SDS011;71549;42.686;23.300;2023-08-24T06:38:21;19.85;;;17.42;;
43216;SDS011;71549;42.686;23.300;2023-08-24T06:40:22;22.80;;;17.83;;
43216;SDS011;71549;42.686;23.300;2023-08-24T06:42:22;19.70;;;16.65;;
43216;SDS011;71549;42.686;23.300;2023-08-24T06:44:23;22.45;;;19.17;;
43216;SDS011;71549;42.686;23.300;2023-08-24T06:46:23;21.42;;;17.75;;
43216;SDS011;71549;42.686;23.300;2023-08-24T06:48:24;19.75;;;17.50;;
43216;SDS011;71549;42.686;23.300;2023-08-24T06:50:24;25.13;;;18.88;;
43216;SDS011;71549;42.686;23.300;2023-08-24T06:52:24;20.77;;;18.65;;
43216;SDS011;71549;42.686;23.300;2023-08-24T06:54:25;21.63;;;18.80;;
43216;SDS011;71549;42.686;23.300;2023-08-24T06:56:25;20.25;;;18.17;;
43216;SDS011;71549;42.686;23.300;2023-08-24T06:58:26;21.17;;;18.55;;
43216;SDS011;71549;42.686;23.300;2023-08-24T07:00:26;24.45;;;19.58;;
43216;SDS011;71549;42.686;23.300;2023-08-24T07:02:27;21.67;;;19.15;;
43216;SDS011;71549;42.686;23.300;2023-08-24T07:04:27;21.52;;;18.17;;
43216;SDS011;71549;42.686;23.300;2023-08-24T07:06:28;18.10;;;16.23;;
43216;SDS011;71549;42.686;23.300;2023-08-24T07:08:28;20.10;;;15.40;;
43216;SDS011;71549;42.686;23.300;2023-08-24T07:10:29;18.63;;;15.55;;
43216;SDS011;71549;42.686;23.300;2023-08-24T07:12:29;16.88;;;14.15;;
43216;SDS011;71549;42.686;23.300;2023-08-24T07:14:31;16.35;;;14.68;;
43216;SDS011;71549;42.686;23.300;2023-08-24T07:16:32;15.52;;;13.73;;
43216;SDS011;71549;42.686;23.300;2023-08-24T07:18:32;17.45;;;14.48;;
43216;SDS011;71549;42.686;23.300;2023-08-24T07:20:33;16.40;;;14.27;;
43216;SDS011;71549;42.686;23.300;2023-08-24T07:22:33;14.25;;;12.77;;
43216;SDS011;71549;42.686;23.300;2023-08-24T07:24:34;15.48;;;13.88;;
43216;SDS011;71549;42.686;23.300;2023-08-24T07:26:36;16.60;;;13.68;;
43216;SDS011;71549;42.686;23.300;2023-08-24T07:28:36;15.00;;;13.43;;
43216;SDS011;71549;42.686;23.300;2023-08-24T07:30:37;14.63;;;13.15;;
43216;SDS011;71549;42.686;23.300;2023-08-24T07:32:37;15.13;;;13.52;;
43216;SDS011;71549;42.686;23.300;2023-08-24T07:34:38;13.32;;;12.02;;
43216;SDS011;71549;42.686;23.300;2023-08-24T07:36:38;14.70;;;13.23;;
43216;SDS011;71549;42.686;23.300;2023-08-24T07:38:39;13.25;;;11.90;;
43216;SDS011;71549;42.686;23.300;2023-08-24T07:40:39;14.65;;;13.10;;
43216;SDS011;71549;42.686;23.300;2023-08-24T07:42:47;13.45;;;12.10;;
43216;SDS011;71549;42.686;23.300;2023-08-24T07:44:50;15.43;;;12.90;;
43216;SDS011;71549;42.686;23.300;2023-08-24T07:46:51;15.25;;;13.75;;
43216;SDS011;71549;42.686;23.300;2023-08-24T07:48:51;14.25;;;11.82;;
43216;SDS011;71549;42.686;23.300;2023-08-24T07:50:52;15.20;;;13.77;;
43216;SDS011;71549;42.686;23.300;2023-08-24T07:52:53;13.40;;;12.10;;
43216;SDS011;71549;42.686;23.300;2023-08-24T07:54:53;14.20;;;12.73;;
43216;SDS011;71549;42.686;23.300;2023-08-24T07:56:55;14.05;;;12.77;;
43216;SDS011;71549;42.686;23.300;2023-08-24T07:58:55;12.95;;;11.65;;
43216;SDS011;71549;42.686;23.300;2023-08-24T08:00:56;12.52;;;11.32;;
43216;SDS011;71549;42.686;23.300;2023-08-24T08:02:58;13.15;;;11.82;;
43216;SDS011;71549;42.686;23.300;2023-08-24T08:04:58;12.82;;;11.57;;
43216;SDS011;71549;42.686;23.300;2023-08-24T08:07:01;14.13;;;12.03;;
43216;SDS011;71549;42.686;23.300;2023-08-24T08:09:02;13.95;;;12.00;;
43216;SDS011;71549;42.686;23.300;2023-08-24T08:11:03;13.48;;;12.07;;
43216;SDS011;71549;42.686;23.300;2023-08-24T08:13:04;13.35;;;11.68;;
43216;SDS011;71549;42.686;23.300;2023-08-24T08:15:05;12.27;;;11.18;;
43216;SDS011;71549;42.686;23.300;2023-08-24T08:17:06;12.70;;;11.40;;
43216;SDS011;71549;42.686;23.300;2023-08-24T08:19:07;12.88;;;11.60;;
43216;SDS011;71549;42.686;23.300;2023-08-24T08:21:14;12.65;;;11.45;;
43216;SDS011;71549;42.686;23.300;2023-08-24T08:23:18;12.80;;;11.50;;
43216;SDS011;71549;42.686;23.300;2023-08-24T08:25:18;13.43;;;12.02;;
43216;SDS011;71549;42.686;23.300;2023-08-24T08:27:19;13.05;;;11.82;;
43216;SDS011;71549;42.686;23.300;2023-08-24T08:29:19;12.50;;;11.35;;
43216;SDS011;71549;42.686;23.300;2023-08-24T08:31:20;11.18;;;10.18;;
43216;SDS011;71549;42.686;23.300;2023-08-24T08:33:20;12.63;;;11.43;;
43216;SDS011;71549;42.686;23.300;2023-08-24T08:35:22;11.82;;;10.63;;
43216;SDS011;71549;42.686;23.300;2023-08-24T08:37:22;11.48;;;10.30;;
43216;SDS011;71549;42.686;23.300;2023-08-24T08:39:23;12.65;;;11.27;;
43216;SDS011;71549;42.686;23.300;2023-08-24T08:41:26;11.80;;;10.80;;
43216;SDS011;71549;42.686;23.300;2023-08-24T08:43:30;11.85;;;10.75;;
43216;SDS011;71549;42.686;23.300;2023-08-24T08:45:31;11.90;;;10.70;;
43216;SDS011;71549;42.686;23.300;2023-08-24T08:47:31;11.75;;;10.65;;
43216;SDS011;71549;42.686;23.300;2023-08-24T08:49:32;12.02;;;10.82;;
43216;SDS011;71549;42.686;23.300;2023-08-24T08:51:36;12.32;;;11.13;;
43216;SDS011;71549;42.686;23.300;2023-08-24T08:53:36;12.18;;;10.88;;
43216;SDS011;71549;42.686;23.300;2023-08-24T08:55:37;11.10;;;10.18;;
43216;SDS011;71549;42.686;23.300;2023-08-24T08:57:38;11.48;;;10.38;;
43216;SDS011;71549;42.686;23.300;2023-08-24T08:59:40;11.05;;;10.00;;
43216;SDS011;71549;42.686;23.300;2023-08-24T09:01:41;11.43;;;10.43;;
43216;SDS011;71549;42.686;23.300;2023-08-24T09:03:44;12.10;;;10.95;;
43216;SDS011;71549;42.686;23.300;2023-08-24T09:05:45;11.50;;;10.43;;
43216;SDS011;71549;42.686;23.300;2023-08-24T09:07:48;11.48;;;10.43;;
43216;SDS011;71549;42.686;23.300;2023-08-24T09:09:49;11.57;;;10.48;;
43216;SDS011;71549;42.686;23.300;2023-08-24T09:11:50;11.60;;;10.50;;
43216;SDS011;71549;42.686;23.300;2023-08-24T09:13:51;11.57;;;10.52;;
43216;SDS011;71549;42.686;23.300;2023-08-24T09:15:52;11.18;;;10.13;;
43216;SDS011;71549;42.686;23.300;2023-08-24T09:17:55;10.95;;;9.95;;
43216;SDS011;71549;42.686;23.300;2023-08-24T09:19:59;11.68;;;10.60;;
43216;SDS011;71549;42.686;23.300;2023-08-24T09:22:07;11.75;;;10.63;;
43216;SDS011;71549;42.686;23.300;2023-08-24T09:24:07;11.48;;;10.27;;
43216;SDS011;71549;42.686;23.300;2023-08-24T09:26:10;11.52;;;10.52;;
43216;SDS011;71549;42.686;23.300;2023-08-24T09:28:11;10.98;;;10.07;;
43216;SDS011;71549;42.686;23.300;2023-08-24T09:30:11;11.68;;;10.63;;
43216;SDS011;71549;42.686;23.300;2023-08-24T09:32:12;10.93;;;9.95;;
43216;SDS011;71549;42.686;23.300;2023-08-24T09:34:12;10.63;;;9.65;;
43216;SDS011;71549;42.686;23.300;2023-08-24T09:36:15;11.20;;;10.10;;
43216;SDS011;71549;42.686;23.300;2023-08-24T09:38:18;10.73;;;9.73;;
43216;SDS011;71549;42.686;23.300;2023-08-24T09:40:23;10.82;;;9.82;;
43216;SDS011;71549;42.686;23.300;2023-08-24T09:42:25;11.90;;;10.80;;
43216;SDS011;71549;42.686;23.300;2023-08-24T09:44:26;12.50;;;11.20;;
43216;SDS011;71549;42.686;23.300;2023-08-24T09:46:28;12.10;;;10.85;;
43216;SDS011;71549;42.686;23.300;2023-08-24T09:48:28;11.88;;;10.75;;
43216;SDS011;71549;42.686;23.300;2023-08-24T09:50:31;11.75;;;10.65;;
43216;SDS011;71549;42.686;23.300;2023-08-24T09:52:32;11.45;;;10.45;;
43216;SDS011;71549;42.686;23.300;2023-08-24T09:54:37;10.07;;;9.18;;
43216;SDS011;71549;42.686;23.300;2023-08-24T09:56:39;11.57;;;10.50;;
43216;SDS011;71549;42.686;23.300;2023-08-24T09:58:40;11.02;;;10.13;;
43216;SDS011;71549;42.686;23.300;2023-08-24T10:00:45;11.63;;;10.63;;
43216;SDS011;71549;42.686;23.300;2023-08-24T10:02:49;11.35;;;10.27;;
43216;SDS011;71549;42.686;23.300;2023-08-24T10:04:51;11.05;;;9.90;;
43216;SDS011;71549;42.686;23.300;2023-08-24T10:07:03;11.38;;;10.40;;
43216;SDS011;71549;42.686;23.300;2023-08-24T10:09:07;10.65;;;9.65;;
43216;SDS011;71549;42.686;23.300;2023-08-24T10:11:11;11.90;;;10.80;;
43216;SDS011;71549;42.686;23.300;2023-08-24T10:13:26;10.45;;;9.45;;
43216;SDS011;71549;42.686;23.300;2023-08-24T10:17:36;10.25;;;9.35;;
43216;SDS011;71549;42.686;23.300;2023-08-24T10:19:39;11.10;;;10.10;;
43216;SDS011;71549;42.686;23.300;2023-08-24T10:21:41;10.02;;;9.13;;
43216;SDS011;71549;42.686;23.300;2023-08-24T10:23:43;11.80;;;10.50;;
43216;SDS011;71549;42.686;23.300;2023-08-24T10:25:48;11.13;;;10.20;;
43216;SDS011;71549;42.686;23.300;2023-08-24T10:27:52;10.25;;;9.40;;
43216;SDS011;71549;42.686;23.300;2023-08-24T10:29:54;11.38;;;10.48;;
43216;SDS011;71549;42.686;23.300;2023-08-24T10:31:54;10.18;;;9.38;;
43216;SDS011;71549;42.686;23.300;2023-08-24T10:33:57;10.00;;;9.20;;
43216;SDS011;71549;42.686;23.300;2023-08-24T10:35:58;9.80;;;8.93;;
43216;SDS011;71549;42.686;23.300;2023-08-24T10:37:59;10.57;;;9.68;;
43216;SDS011;71549;42.686;23.300;2023-08-24T10:40:00;11.35;;;10.30;;
43216;SDS011;71549;42.686;23.300;2023-08-24T10:42:01;10.13;;;9.23;;
43216;SDS011;71549;42.686;23.300;2023-08-24T10:44:05;9.68;;;8.82;;
43216;SDS011;71549;42.686;23.300;2023-08-24T10:46:11;9.95;;;8.95;;
43216;SDS011;71549;42.686;23.300;2023-08-24T10:48:14;10.30;;;9.40;;
43216;SDS011;71549;42.686;23.300;2023-08-24T10:50:15;10.20;;;9.30;;
43216;SDS011;71549;42.686;23.300;2023-08-24T10:52:20;9.43;;;8.57;;
43216;SDS011;71549;42.686;23.300;2023-08-24T10:54:30;9.60;;;8.85;;
43216;SDS011;71549;42.686;23.300;2023-08-24T10:58:35;10.90;;;10.00;;
43216;SDS011;71549;42.686;23.300;2023-08-24T11:00:35;10.75;;;9.88;;
43216;SDS011;71549;42.686;23.300;2023-08-24T11:02:44;10.57;;;9.77;;
43216;SDS011;71549;42.686;23.300;2023-08-24T11:07:29;11.95;;;10.75;;
43216;SDS011;71549;42.686;23.300;2023-08-24T11:09:45;9.93;;;9.13;;
43216;SDS011;71549;42.686;23.300;2023-08-24T11:11:58;10.27;;;9.23;;
43216;SDS011;71549;42.686;23.300;2023-08-24T11:14:14;9.77;;;8.90;;
43216;SDS011;71549;42.686;23.300;2023-08-24T11:16:39;10.60;;;9.70;;
43216;SDS011;71549;42.686;23.300;2023-08-24T11:18:40;10.77;;;9.80;;
43216;SDS011;71549;42.686;23.300;2023-08-24T11:20:46;10.15;;;9.27;;
43216;SDS011;71549;42.686;23.300;2023-08-24T11:22:48;9.38;;;8.48;;
43216;SDS011;71549;42.686;23.300;2023-08-24T11:24:49;10.35;;;9.52;;
43216;SDS011;71549;42.686;23.300;2023-08-24T11:26:50;10.43;;;9.43;;
43216;SDS011;71549;42.686;23.300;2023-08-24T11:28:54;9.18;;;8.38;;
43216;SDS011;71549;42.686;23.300;2023-08-24T11:30:55;9.52;;;8.73;;
43216;SDS011;71549;42.686;23.300;2023-08-24T11:32:57;10.88;;;10.02;;
43216;SDS011;71549;42.686;23.300;2023-08-24T11:34:57;9.60;;;8.80;;
43216;SDS011;71549;42.686;23.300;2023-08-24T11:36:58;9.88;;;9.07;;
43216;SDS011;71549;42.686;23.300;2023-08-24T11:38:59;9.63;;;8.82;;
43216;SDS011;71549;42.686;23.300;2023-08-24T11:41:01;9.63;;;8.82;;
43216;SDS011;71549;42.686;23.300;2023-08-24T11:43:01;9.82;;;8.90;;
43216;SDS011;71549;42.686;23.300;2023-08-24T11:45:01;9.15;;;8.45;;
43216;SDS011;71549;42.686;23.300;2023-08-24T11:47:12;9.60;;;8.73;;
43216;SDS011;71549;42.686;23.300;2023-08-24T11:49:13;9.80;;;9.00;;
43216;SDS011;71549;42.686;23.300;2023-08-24T11:51:13;9.32;;;8.63;;
43216;SDS011;71549;42.686;23.300;2023-08-24T11:53:16;9.43;;;8.63;;
43216;SDS011;71549;42.686;23.300;2023-08-24T11:55:17;8.93;;;8.32;;
43216;SDS011;71549;42.686;23.300;2023-08-24T11:57:17;10.07;;;9.13;;
43216;SDS011;71549;42.686;23.300;2023-08-24T11:59:18;10.82;;;9.70;;
43216;SDS011;71549;42.686;23.300;2023-08-24T12:01:19;9.65;;;8.93;;
43216;SDS011;71549;42.686;23.300;2023-08-24T12:03:20;9.45;;;8.65;;
43216;SDS011;71549;42.686;23.300;2023-08-24T12:05:24;10.00;;;9.07;;
43216;SDS011;71549;42.686;23.300;2023-08-24T12:07:28;9.30;;;8.50;;
43216;SDS011;71549;42.686;23.300;2023-08-24T12:09:32;9.40;;;8.60;;
43216;SDS011;71549;42.686;23.300;2023-08-24T12:11:39;8.52;;;7.82;;